createdAt,value
2017-04-15T00:00:00.419Z,29.74
2017-04-15T00:01:09.505Z,29.65
2017-04-15T00:02:18.603Z,30.04
2017-04-15T00:03:28.005Z,30.04
2017-04-15T00:04:37.388Z,30.04
2017-04-15T00:05:46.480Z,29.74
2017-04-15T00:06:55.576Z,29.73
2017-04-15T00:08:04.947Z,29.65
2017-04-15T00:09:14.298Z,29.65
2017-04-15T00:10:23.383Z,30.04
2017-04-15T00:11:32.160Z,29.65
2017-04-15T00:12:42.069Z,29.55
2017-04-15T00:13:51.775Z,29.65
2017-04-15T00:15:01.469Z,30.04
2017-04-15T00:16:10.269Z,29.74
2017-04-15T00:17:19.338Z,29.74
2017-04-15T00:18:28.996Z,29.65
2017-04-15T00:19:38.092Z,29.65
2017-04-15T00:20:46.878Z,29.74
2017-04-15T00:21:55.669Z,29.74
2017-04-15T00:23:04.769Z,29.74
2017-04-15T00:24:14.220Z,29.63
2017-04-15T00:25:23.000Z,29.73
2017-04-15T00:26:31.824Z,29.74
2017-04-15T00:27:40.589Z,29.65
2017-04-15T00:28:50.786Z,29.54
2017-04-15T00:29:59.876Z,29.94
2017-04-15T00:31:09.281Z,29.93
2017-04-15T00:32:18.242Z,30.02
2017-04-15T00:33:27.593Z,29.94
2017-04-15T00:34:36.682Z,30.21
2017-04-15T00:35:45.782Z,30.21
2017-04-15T00:36:55.115Z,30.22
2017-04-15T00:38:04.211Z,29.93
2017-04-15T00:39:13.306Z,29.65
2017-04-15T00:40:22.401Z,30.21
2017-04-15T00:41:31.799Z,30.32
2017-04-15T00:42:41.204Z,30.31
2017-04-15T00:43:51.007Z,30.31
2017-04-15T00:45:00.720Z,30.4
2017-04-15T00:46:09.511Z,30.4
2017-04-15T00:47:18.601Z,30.52
2017-04-15T00:48:28.311Z,30.22
2017-04-15T00:49:37.388Z,30.42
2017-04-15T00:50:46.196Z,30.4
2017-04-15T00:51:55.004Z,30.6
2017-04-15T00:53:03.785Z,30.42
2017-04-15T00:54:12.560Z,30.69
2017-04-15T00:55:21.647Z,30.71
2017-04-15T00:56:30.729Z,30.6
2017-04-15T00:57:39.506Z,30.4
2017-04-15T00:58:48.288Z,30.6
2017-04-15T00:59:57.142Z,30.69
2017-04-15T01:01:06.545Z,30.32
2017-04-15T01:02:15.746Z,30.5
2017-04-15T01:03:24.839Z,30.69
2017-04-15T01:04:33.922Z,30.5
2017-04-15T01:05:42.721Z,30.79
2017-04-15T01:06:51.574Z,30.6
2017-04-15T01:08:00.619Z,30.6
2017-04-15T01:09:10.012Z,30.4
2017-04-15T01:10:19.109Z,30.69
2017-04-15T01:11:28.210Z,30.61
2017-04-15T01:12:37.294Z,30.88
2017-04-15T01:13:46.964Z,30.71
2017-04-15T01:14:56.323Z,30.6
2017-04-15T01:16:05.075Z,30.6
2017-04-15T01:17:14.408Z,30.6
2017-04-15T01:18:23.699Z,30.6
2017-04-15T01:19:33.112Z,30.69
2017-04-15T01:20:42.506Z,30.6
2017-04-15T01:21:51.581Z,30.69
2017-04-15T01:23:01.287Z,30.69
2017-04-15T01:24:10.057Z,30.5
2017-04-15T01:25:19.625Z,30.6
2017-04-15T01:26:29.015Z,30.6
2017-04-15T01:27:38.108Z,30.69
2017-04-15T01:28:47.509Z,30.69
2017-04-15T01:29:56.283Z,30.6
2017-04-15T01:31:05.649Z,30.61
2017-04-15T01:32:14.690Z,30.4
2017-04-15T01:33:23.484Z,30.98
2017-04-15T01:34:33.484Z,30.4
2017-04-15T01:35:42.459Z,30.4
2017-04-15T01:36:51.702Z,30.98
2017-04-15T01:38:00.789Z,31.18
2017-04-15T01:39:09.847Z,30.42
2017-04-15T01:40:18.569Z,30.42
2017-04-15T01:41:27.303Z,30.5
2017-04-15T01:42:36.363Z,30.52
2017-04-15T01:43:45.404Z,31
2017-04-15T01:44:54.488Z,30.98
2017-04-15T01:46:03.895Z,30.4
2017-04-15T01:47:12.989Z,30.9
2017-04-15T01:48:23.003Z,30.79
2017-04-15T01:49:32.090Z,30.9
2017-04-15T01:50:41.776Z,30.31
2017-04-15T01:51:50.555Z,31.19
2017-04-15T01:52:59.644Z,30.4
2017-04-15T01:54:08.715Z,30.31
2017-04-15T01:55:18.710Z,30.8
2017-04-15T01:56:27.487Z,30.98
2017-04-15T01:57:36.582Z,30.31
2017-04-15T01:58:45.959Z,30.79
2017-04-15T01:59:54.731Z,30.79
2017-04-15T02:01:04.413Z,30.79
2017-04-15T02:02:13.137Z,30.6
2017-04-15T02:03:21.885Z,30.79
2017-04-15T02:04:31.267Z,30.79
2017-04-15T02:05:40.358Z,30.79
2017-04-15T02:06:49.748Z,30.5
2017-04-15T02:07:58.806Z,30.79
2017-04-15T02:09:07.860Z,30.6
2017-04-15T02:10:17.555Z,30.69
2017-04-15T02:11:26.324Z,30.69
2017-04-15T02:12:35.372Z,30.79
2017-04-15T02:13:45.046Z,30.79
2017-04-15T02:14:54.400Z,30.79
2017-04-15T02:16:03.485Z,30.79
2017-04-15T02:17:12.563Z,30.79
2017-04-15T02:18:21.344Z,30.79
2017-04-15T02:19:30.703Z,30.88
2017-04-15T02:20:40.107Z,30.79
2017-04-15T02:21:48.888Z,30.88
2017-04-15T02:22:58.288Z,30.79
2017-04-15T02:24:07.672Z,30.69
2017-04-15T02:25:17.066Z,30.79
2017-04-15T02:26:26.207Z,30.79
2017-04-15T02:27:35.264Z,30.79
2017-04-15T02:28:45.467Z,30.79
2017-04-15T02:29:55.196Z,30.88
2017-04-15T02:31:04.264Z,30.5
2017-04-15T02:32:13.923Z,30.69
2017-04-15T02:33:22.710Z,30.4
2017-04-15T02:34:31.793Z,30.69
2017-04-15T02:35:40.558Z,30.6
2017-04-15T02:36:49.603Z,30.4
2017-04-15T02:37:58.950Z,30.4
2017-04-15T02:39:08.002Z,30.31
2017-04-15T02:40:17.089Z,30.21
2017-04-15T02:41:26.180Z,30.4
2017-04-15T02:42:35.270Z,30.5
2017-04-15T02:43:44.665Z,30.11
2017-04-15T02:44:54.455Z,30.31
2017-04-15T02:46:03.833Z,30.02
2017-04-15T02:47:12.863Z,30.21
2017-04-15T02:48:22.225Z,29.83
2017-04-15T02:49:31.618Z,29.83
2017-04-15T02:50:40.676Z,29.83
2017-04-15T02:51:50.022Z,29.73
2017-04-15T02:52:58.782Z,30.21
2017-04-15T02:54:07.876Z,30.31
2017-04-15T02:55:23.539Z,30.21
2017-04-15T02:56:32.306Z,30.21
2017-04-15T02:57:41.697Z,29.93
2017-04-15T02:58:51.077Z,29.83
2017-04-15T03:00:00.473Z,30.21
2017-04-15T03:01:09.562Z,30.31
2017-04-15T03:02:18.645Z,30.21
2017-04-15T03:03:27.717Z,30.11
2017-04-15T03:04:37.417Z,29.83
2017-04-15T03:05:46.508Z,30.02
2017-04-15T03:06:55.279Z,30.11
2017-04-15T03:08:04.360Z,30.11
2017-04-15T03:09:13.738Z,30.02
2017-04-15T03:10:23.125Z,29.83
2017-04-15T03:11:31.890Z,30.02
2017-04-15T03:12:41.276Z,29.93
2017-04-15T03:13:50.046Z,29.83
2017-04-15T03:14:58.996Z,29.54
2017-04-15T03:16:08.243Z,29.83
2017-04-15T03:17:17.077Z,30.02
2017-04-15T03:18:26.105Z,30.11
2017-04-15T03:19:35.801Z,29.44
2017-04-15T03:20:44.571Z,30.02
2017-04-15T03:21:53.340Z,29.44
2017-04-15T03:23:02.126Z,30.02
2017-04-15T03:24:11.201Z,29.54
2017-04-15T03:25:20.279Z,29.54
2017-04-15T03:26:29.051Z,29.63
2017-04-15T03:27:38.128Z,29.93
2017-04-15T03:28:48.093Z,29.93
2017-04-15T03:29:57.100Z,29.54
2017-04-15T03:31:06.410Z,30.02
2017-04-15T03:32:15.440Z,29.63
2017-04-15T03:33:24.207Z,30.02
2017-04-15T03:34:32.984Z,29.93
2017-04-15T03:35:41.753Z,29.93
2017-04-15T03:36:50.796Z,30.11
2017-04-15T03:38:00.111Z,29.93
2017-04-15T03:39:08.854Z,29.54
2017-04-15T03:40:17.943Z,30.11
2017-04-15T03:41:27.016Z,29.54
2017-04-15T03:42:35.795Z,30.02
2017-04-15T03:43:44.576Z,29.63
2017-04-15T03:44:53.340Z,29.54
2017-04-15T03:46:03.033Z,29.54
2017-04-15T03:47:11.801Z,29.63
2017-04-15T03:48:20.553Z,29.63
2017-04-15T03:49:29.584Z,30.02
2017-04-15T03:50:38.356Z,29.93
2017-04-15T03:51:47.130Z,29.63
2017-04-15T03:52:56.501Z,29.73
2017-04-15T03:54:05.543Z,29.25
2017-04-15T03:55:14.314Z,29.63
2017-04-15T03:56:23.382Z,29.73
2017-04-15T03:57:32.158Z,29.63
2017-04-15T03:58:41.818Z,29.83
2017-04-15T03:59:51.982Z,29.54
2017-04-15T04:01:00.727Z,29.44
2017-04-15T04:02:09.451Z,29.44
2017-04-15T04:03:18.840Z,29.73
2017-04-15T04:04:27.922Z,29.73
2017-04-15T04:05:37.002Z,29.83
2017-04-15T04:06:46.029Z,29.73
2017-04-15T04:07:55.569Z,29.73
2017-04-15T04:09:04.617Z,29.73
2017-04-15T04:10:14.130Z,29.54
2017-04-15T04:11:23.095Z,29.06
2017-04-15T04:12:31.936Z,29.06
2017-04-15T04:13:41.326Z,28.86
2017-04-15T04:14:51.296Z,29.06
2017-04-15T04:16:00.212Z,29.15
2017-04-15T04:17:09.076Z,29.54
2017-04-15T04:18:18.211Z,29.35
2017-04-15T04:19:27.301Z,29.54
2017-04-15T04:20:36.383Z,29.35
2017-04-15T04:21:45.455Z,29.44
2017-04-15T04:22:54.528Z,29.54
2017-04-15T04:24:03.892Z,29.44
2017-04-15T04:25:13.240Z,28.77
2017-04-15T04:26:22.014Z,29.54
2017-04-15T04:27:30.983Z,29.06
2017-04-15T04:28:40.362Z,29.06
2017-04-15T04:29:50.051Z,29.44
2017-04-15T04:30:59.102Z,29.35
2017-04-15T04:32:08.768Z,29.15
2017-04-15T04:33:17.839Z,29.35
2017-04-15T04:34:26.917Z,29.44
2017-04-15T04:35:36.015Z,29.35
2017-04-15T04:36:44.779Z,29.15
2017-04-15T04:37:53.549Z,29.54
2017-04-15T04:39:02.946Z,29.06
2017-04-15T04:40:12.328Z,29.35
2017-04-15T04:41:21.427Z,29.35
2017-04-15T04:42:30.197Z,29.35
2017-04-15T04:43:39.873Z,29.06
2017-04-15T04:44:49.832Z,29.17
2017-04-15T04:45:58.559Z,28.88
2017-04-15T04:47:07.639Z,28.86
2017-04-15T04:48:17.030Z,29.06
2017-04-15T04:49:26.121Z,28.86
2017-04-15T04:50:35.194Z,28.96
2017-04-15T04:51:43.966Z,28.86
2017-04-15T04:52:52.759Z,28.96
2017-04-15T04:54:01.837Z,28.96
2017-04-15T04:55:10.585Z,29.06
2017-04-15T04:56:19.617Z,28.96
2017-04-15T04:57:28.991Z,28.97
2017-04-15T04:58:38.393Z,29.17
2017-04-15T04:59:48.282Z,29.15
2017-04-15T05:00:57.629Z,29.17
2017-04-15T05:02:06.700Z,29.07
2017-04-15T05:03:15.785Z,28.97
2017-04-15T05:04:25.384Z,28.97
2017-04-15T05:05:35.489Z,29.27
2017-04-15T05:06:44.777Z,28.88
2017-04-15T05:07:53.988Z,28.49
2017-04-15T05:09:03.378Z,29.07
2017-04-15T05:10:13.211Z,28.97
2017-04-15T05:11:22.279Z,28.88
2017-04-15T05:12:31.052Z,28.49
2017-04-15T05:13:40.439Z,28.97
2017-04-15T05:14:49.499Z,28.59
2017-04-15T05:15:58.668Z,28.69
2017-04-15T05:17:07.401Z,28.69
2017-04-15T05:18:16.470Z,28.97
2017-04-15T05:19:25.552Z,28.59
2017-04-15T05:20:35.552Z,28.88
2017-04-15T05:21:44.926Z,28.69
2017-04-15T05:22:54.277Z,28.69
2017-04-15T05:24:03.661Z,28.97
2017-04-15T05:25:13.038Z,28.78
2017-04-15T05:26:21.820Z,28.78
2017-04-15T05:27:30.878Z,28.97
2017-04-15T05:28:39.920Z,28.69
2017-04-15T05:29:49.599Z,28.59
2017-04-15T05:30:58.996Z,28.97
2017-04-15T05:32:07.940Z,28.88
2017-04-15T05:33:17.301Z,28.59
2017-04-15T05:34:26.396Z,28.59
2017-04-15T05:35:35.780Z,28.59
2017-04-15T05:36:44.540Z,28.59
2017-04-15T05:37:53.594Z,28.49
2017-04-15T05:39:02.641Z,28.4
2017-04-15T05:40:11.728Z,28.59
2017-04-15T05:41:20.487Z,28.4
2017-04-15T05:42:30.677Z,28.4
2017-04-15T05:43:40.066Z,28.49
2017-04-15T05:44:49.755Z,28.4
2017-04-15T05:45:59.035Z,28.69
2017-04-15T05:47:07.795Z,28.4
2017-04-15T05:48:16.861Z,28.4
2017-04-15T05:49:25.892Z,28.49
2017-04-15T05:50:34.976Z,28.59
2017-04-15T05:51:43.739Z,28.59
2017-04-15T05:52:53.120Z,28.4
2017-04-15T05:54:02.199Z,28.3
2017-04-15T05:55:10.971Z,28.49
2017-04-15T05:56:20.060Z,28.49
2017-04-15T05:57:29.440Z,28.4
2017-04-15T05:58:39.096Z,28.49
2017-04-15T05:59:48.432Z,28.69
2017-04-15T06:00:57.209Z,28.49
2017-04-15T06:02:06.280Z,28.49
2017-04-15T06:03:15.368Z,28.59
2017-04-15T06:04:25.058Z,28.3
2017-04-15T06:05:34.451Z,28.59
2017-04-15T06:06:43.809Z,28.2
2017-04-15T06:07:52.539Z,28.69
2017-04-15T06:09:02.098Z,28.2
2017-04-15T06:10:11.455Z,28.49
2017-04-15T06:11:20.546Z,28.59
2017-04-15T06:12:29.612Z,28.4
2017-04-15T06:13:38.382Z,28.3
2017-04-15T06:14:48.068Z,28.2
2017-04-15T06:15:57.122Z,28.69
2017-04-15T06:17:06.154Z,28.2
2017-04-15T06:18:15.220Z,28.2
2017-04-15T06:19:25.193Z,28.59
2017-04-15T06:20:33.935Z,28.61
2017-04-15T06:21:42.711Z,28.49
2017-04-15T06:22:52.099Z,28.4
2017-04-15T06:24:01.475Z,28.2
2017-04-15T06:25:10.568Z,28.11
2017-04-15T06:26:19.655Z,28.22
2017-04-15T06:27:28.416Z,28.4
2017-04-15T06:28:38.100Z,28.11
2017-04-15T06:29:47.778Z,28.3
2017-04-15T06:30:56.856Z,28.51
2017-04-15T06:32:05.647Z,28.2
2017-04-15T06:33:15.036Z,28.51
2017-04-15T06:34:24.727Z,28.3
2017-04-15T06:35:33.810Z,28.2
2017-04-15T06:36:42.572Z,28.3
2017-04-15T06:37:51.646Z,28.22
2017-04-15T06:39:01.038Z,28.02
2017-04-15T06:40:10.110Z,28.31
2017-04-15T06:41:18.875Z,28.2
2017-04-15T06:42:27.961Z,28.02
2017-04-15T06:43:36.739Z,28.11
2017-04-15T06:44:46.109Z,28.03
2017-04-15T06:45:55.498Z,28.22
2017-04-15T06:47:04.585Z,28.22
2017-04-15T06:48:13.655Z,28.31
2017-04-15T06:49:23.240Z,28.41
2017-04-15T06:50:32.315Z,28.03
2017-04-15T06:51:41.078Z,28.22
2017-04-15T06:52:50.158Z,28.31
2017-04-15T06:53:59.243Z,28.31
2017-04-15T06:55:08.624Z,28.13
2017-04-15T06:56:17.712Z,28.4
2017-04-15T06:57:27.091Z,28.03
2017-04-15T06:58:36.484Z,28.31
2017-04-15T06:59:45.579Z,28.22
2017-04-15T07:00:54.859Z,28.31
2017-04-15T07:02:03.732Z,28.31
2017-04-15T07:03:13.075Z,28.41
2017-04-15T07:04:22.471Z,28.03
2017-04-15T07:05:31.853Z,28.31
2017-04-15T07:06:40.622Z,28.03
2017-04-15T07:07:49.595Z,28.31
2017-04-15T07:08:59.392Z,28.41
2017-04-15T07:10:08.267Z,28.22
2017-04-15T07:11:17.478Z,28.51
2017-04-15T07:12:27.169Z,28.31
2017-04-15T07:13:35.953Z,28.51
2017-04-15T07:14:45.402Z,28.41
2017-04-15T07:15:54.530Z,28.22
2017-04-15T07:17:03.582Z,28.13
2017-04-15T07:18:12.661Z,28.41
2017-04-15T07:19:22.241Z,28.13
2017-04-15T07:20:31.015Z,28.31
2017-04-15T07:21:40.541Z,28.22
2017-04-15T07:22:49.939Z,28.51
2017-04-15T07:23:59.095Z,28.22
2017-04-15T07:25:08.476Z,28.41
2017-04-15T07:26:17.528Z,28.31
2017-04-15T07:27:26.602Z,28.13
2017-04-15T07:28:35.378Z,28.51
2017-04-15T07:29:45.068Z,28.31
2017-04-15T07:30:54.148Z,28.13
2017-04-15T07:32:03.234Z,28.31
2017-04-15T07:33:12.931Z,28.13
2017-04-15T07:34:21.994Z,28.31
2017-04-15T07:35:30.722Z,28.41
2017-04-15T07:36:39.498Z,28.51
2017-04-15T07:37:48.878Z,28.41
2017-04-15T07:38:57.981Z,28.31
2017-04-15T07:40:07.067Z,28.22
2017-04-15T07:41:16.424Z,28.31
2017-04-15T07:42:25.162Z,28.61
2017-04-15T07:43:33.939Z,28.31
2017-04-15T07:44:43.941Z,28.22
2017-04-15T07:45:52.721Z,28.51
2017-04-15T07:47:01.490Z,28.51
2017-04-15T07:48:10.262Z,28.22
2017-04-15T07:49:19.957Z,28.41
2017-04-15T07:50:29.642Z,28.31
2017-04-15T07:51:38.923Z,28.31
2017-04-15T07:52:47.689Z,28.41
2017-04-15T07:53:57.392Z,28.41
2017-04-15T07:55:06.783Z,28.31
2017-04-15T07:56:15.867Z,28.31
2017-04-15T07:57:24.624Z,28.31
2017-04-15T07:58:33.396Z,28.7
2017-04-15T07:59:42.145Z,28.31
2017-04-15T08:00:51.504Z,28.61
2017-04-15T08:02:00.532Z,28.51
2017-04-15T08:03:09.612Z,28.51
2017-04-15T08:04:18.999Z,28.8
2017-04-15T08:05:28.076Z,28.8
2017-04-15T08:06:37.131Z,28.7
2017-04-15T08:07:45.866Z,28.41
2017-04-15T08:08:55.862Z,28.41
2017-04-15T08:10:04.951Z,28.31
2017-04-15T08:11:14.039Z,27.74
2017-04-15T08:12:22.805Z,27.55
2017-04-15T08:13:31.584Z,27.16
2017-04-15T08:14:40.976Z,26.97
2017-04-15T08:15:50.062Z,27.16
2017-04-15T08:16:59.418Z,27.35
2017-04-15T08:18:08.146Z,27.55
2017-04-15T08:19:17.408Z,27.64
2017-04-15T08:20:26.760Z,27.74
2017-04-15T08:21:35.542Z,27.64
2017-04-15T08:22:44.592Z,27.93
2017-04-15T08:23:53.820Z,27.64
2017-04-15T08:25:02.705Z,27.64
2017-04-15T08:26:11.792Z,27.74
2017-04-15T08:27:20.554Z,27.74
2017-04-15T08:28:29.637Z,27.55
2017-04-15T08:29:39.318Z,27.64
2017-04-15T08:30:48.700Z,27.64
2017-04-15T08:31:57.472Z,27.64
2017-04-15T08:33:06.546Z,27.64
2017-04-15T08:34:15.636Z,27.74
2017-04-15T08:35:24.742Z,27.83
2017-04-15T08:36:33.511Z,28.03
2017-04-15T08:37:42.592Z,27.93
2017-04-15T08:38:51.983Z,28.03
2017-04-15T08:40:00.802Z,28.13
2017-04-15T08:41:09.868Z,27.93
2017-04-15T08:42:18.639Z,28.03
2017-04-15T08:43:27.732Z,28.13
2017-04-15T08:44:36.816Z,28.13
2017-04-15T08:45:45.775Z,28.13
2017-04-15T08:46:55.156Z,27.93
2017-04-15T08:48:04.217Z,28.13
2017-04-15T08:49:13.699Z,28.22
2017-04-15T08:50:22.984Z,28.22
2017-04-15T08:51:31.868Z,28.31
2017-04-15T08:52:41.286Z,28.13
2017-04-15T08:53:50.103Z,28.22
2017-04-15T08:54:59.229Z,28.22
2017-04-15T08:56:08.853Z,27.93
2017-04-15T08:57:17.628Z,28.22
2017-04-15T08:58:26.413Z,28.31
2017-04-15T08:59:35.192Z,28.13
2017-04-15T09:00:44.597Z,28.13
2017-04-15T09:01:54.189Z,28.13
2017-04-15T09:03:03.529Z,28.13
2017-04-15T09:04:12.571Z,28.13
2017-04-15T09:05:21.659Z,28.13
2017-04-15T09:06:30.430Z,28.03
2017-04-15T09:07:39.200Z,28.13
2017-04-15T09:08:48.597Z,28.22
2017-04-15T09:09:57.676Z,28.13
2017-04-15T09:11:06.454Z,28.03
2017-04-15T09:12:15.850Z,28.13
2017-04-15T09:13:25.221Z,28.31
2017-04-15T09:14:34.301Z,28.03
2017-04-15T09:15:43.378Z,28.13
2017-04-15T09:16:52.459Z,28.13
2017-04-15T09:18:01.699Z,28.03
2017-04-15T09:19:10.470Z,28.13
2017-04-15T09:20:19.526Z,28.31
2017-04-15T09:21:28.559Z,28.41
2017-04-15T09:22:37.316Z,28.03
2017-04-15T09:23:46.694Z,28.31
2017-04-15T09:24:56.992Z,28.22
2017-04-15T09:26:06.685Z,28.31
2017-04-15T09:27:16.526Z,28.13
2017-04-15T09:28:26.214Z,28.22
2017-04-15T09:29:35.584Z,28.41
2017-04-15T09:30:44.658Z,28.22
2017-04-15T09:31:53.388Z,28.31
2017-04-15T09:33:02.782Z,28.41
2017-04-15T09:34:11.565Z,28.13
2017-04-15T09:35:21.564Z,28.22
2017-04-15T09:36:30.634Z,28.13
2017-04-15T09:37:39.690Z,28.31
2017-04-15T09:38:49.001Z,28.41
2017-04-15T09:39:58.360Z,28.41
2017-04-15T09:41:07.137Z,28.03
2017-04-15T09:42:16.226Z,28.03
2017-04-15T09:43:25.307Z,28.03
2017-04-15T09:44:34.697Z,28.41
2017-04-15T09:45:43.778Z,28.41
2017-04-15T09:46:52.578Z,28.13
2017-04-15T09:48:02.011Z,28.41
2017-04-15T09:49:11.699Z,28.41
2017-04-15T09:50:20.796Z,28.13
2017-04-15T09:51:29.568Z,28.13
2017-04-15T09:52:38.360Z,28.13
2017-04-15T09:53:48.266Z,28.22
2017-04-15T09:54:57.040Z,28.13
2017-04-15T09:56:06.320Z,28.22
2017-04-15T09:57:15.398Z,28.13
2017-04-15T09:58:25.081Z,28.03
2017-04-15T09:59:34.482Z,28.13
2017-04-15T10:00:43.518Z,28.03
2017-04-15T10:01:52.902Z,28.51
2017-04-15T10:03:01.945Z,28.41
2017-04-15T10:04:11.285Z,28.41
2017-04-15T10:05:20.743Z,28.03
2017-04-15T10:06:29.825Z,28.13
2017-04-15T10:07:39.277Z,28.31
2017-04-15T10:08:48.347Z,28.22
2017-04-15T10:09:57.979Z,28.22
2017-04-15T10:11:07.068Z,28.31
2017-04-15T10:12:16.447Z,28.22
2017-04-15T10:13:25.499Z,28.13
2017-04-15T10:14:34.215Z,28.41
2017-04-15T10:15:42.947Z,28.31
2017-04-15T10:16:51.701Z,28.31
2017-04-15T10:18:00.429Z,28.31
2017-04-15T10:19:10.431Z,28.41
2017-04-15T10:20:19.490Z,28.03
2017-04-15T10:21:28.273Z,28.51
2017-04-15T10:22:37.316Z,28.13
2017-04-15T10:23:46.659Z,28.13
2017-04-15T10:24:55.739Z,28.13
2017-04-15T10:26:04.516Z,28.14
2017-04-15T10:27:13.590Z,28.14
2017-04-15T10:28:22.674Z,27.94
2017-04-15T10:29:31.445Z,28.33
2017-04-15T10:30:40.220Z,28.23
2017-04-15T10:31:49.296Z,28.14
2017-04-15T10:32:58.362Z,28.33
2017-04-15T10:34:07.110Z,28.23
2017-04-15T10:35:15.846Z,28.42
2017-04-15T10:36:25.247Z,28.23
2017-04-15T10:37:34.002Z,28.14
2017-04-15T10:38:43.039Z,28.33
2017-04-15T10:39:52.419Z,28.62
2017-04-15T10:41:01.801Z,28.31
2017-04-15T10:42:10.836Z,28.31
2017-04-15T10:43:20.515Z,28.33
2017-04-15T10:44:30.204Z,28.14
2017-04-15T10:45:40.216Z,28.23
2017-04-15T10:46:48.962Z,28.42
2017-04-15T10:47:58.004Z,28.41
2017-04-15T10:49:07.363Z,28.33
2017-04-15T10:50:16.401Z,28.23
2017-04-15T10:51:25.128Z,28.41
2017-04-15T10:52:34.211Z,28.22
2017-04-15T10:53:43.896Z,28.31
2017-04-15T10:54:53.276Z,28.33
2017-04-15T10:56:02.323Z,28.33
2017-04-15T10:57:11.054Z,28.42
2017-04-15T10:58:20.130Z,28.33
2017-04-15T10:59:29.803Z,28.31
2017-04-15T11:00:38.539Z,28.62
2017-04-15T11:01:47.594Z,28.52
2017-04-15T11:02:56.327Z,28.72
2017-04-15T11:04:05.096Z,28.62
2017-04-15T11:05:14.177Z,28.52
2017-04-15T11:06:22.974Z,28.33
2017-04-15T11:07:32.545Z,28.42
2017-04-15T11:08:41.565Z,28.72
2017-04-15T11:09:50.908Z,28.72
2017-04-15T11:10:59.965Z,28.91
2017-04-15T11:12:08.707Z,28.72
2017-04-15T11:13:17.790Z,29.1
2017-04-15T11:14:26.567Z,28.52
2017-04-15T11:15:35.332Z,29.1
2017-04-15T11:16:44.410Z,29
2017-04-15T11:17:53.191Z,28.81
2017-04-15T11:19:02.576Z,29.29
2017-04-15T11:20:11.667Z,28.52
2017-04-15T11:21:20.744Z,29.2
2017-04-15T11:22:29.520Z,29.2
2017-04-15T11:23:38.604Z,29.2
2017-04-15T11:24:47.386Z,29.1
2017-04-15T11:25:56.771Z,28.91
2017-04-15T11:27:05.870Z,28.81
2017-04-15T11:28:14.925Z,29.1
2017-04-15T11:29:24.323Z,29.1
2017-04-15T11:30:33.405Z,29
2017-04-15T11:31:42.151Z,29.39
2017-04-15T11:32:51.171Z,29.39
2017-04-15T11:34:00.812Z,29.1
2017-04-15T11:35:09.684Z,29
2017-04-15T11:36:18.746Z,28.91
2017-04-15T11:37:27.591Z,28.91
2017-04-15T11:38:37.144Z,29.2
2017-04-15T11:39:46.564Z,29.58
2017-04-15T11:40:55.582Z,29.68
2017-04-15T11:42:04.728Z,29.49
2017-04-15T11:43:14.249Z,29.2
2017-04-15T11:44:23.612Z,29.39
2017-04-15T11:45:33.115Z,29.68
2017-04-15T11:46:42.205Z,29.1
2017-04-15T11:47:50.972Z,29.29
2017-04-15T11:49:00.668Z,29.49
2017-04-15T11:50:09.748Z,29.29
2017-04-15T11:51:18.830Z,29.1
2017-04-15T11:52:28.213Z,29.49
2017-04-15T11:53:37.273Z,28.91
2017-04-15T11:54:46.822Z,29.49
2017-04-15T11:55:55.569Z,29.29
2017-04-15T11:57:05.087Z,29
2017-04-15T11:58:14.123Z,28.91
2017-04-15T11:59:23.214Z,28.91
2017-04-15T12:00:32.609Z,28.92
2017-04-15T12:01:41.689Z,29.21
2017-04-15T12:02:50.666Z,28.63
2017-04-15T12:04:00.353Z,28.44
2017-04-15T12:05:09.431Z,28.53
2017-04-15T12:06:19.102Z,29.11
2017-04-15T12:07:28.448Z,28.63
2017-04-15T12:08:37.202Z,29.11
2017-04-15T12:09:45.936Z,28.92
2017-04-15T12:10:55.322Z,29.02
2017-04-15T12:12:04.400Z,28.83
2017-04-15T12:13:13.354Z,28.94
2017-04-15T12:14:22.081Z,28.44
2017-04-15T12:15:31.468Z,29.03
2017-04-15T12:16:40.245Z,28.83
2017-04-15T12:17:49.326Z,28.74
2017-04-15T12:18:58.718Z,28.92
2017-04-15T12:20:07.499Z,28.74
2017-04-15T12:21:16.589Z,28.64
2017-04-15T12:22:25.672Z,28.45
2017-04-15T12:23:35.235Z,28.64
2017-04-15T12:24:44.887Z,29.42
2017-04-15T12:25:53.959Z,29.03
2017-04-15T12:27:03.023Z,28.55
2017-04-15T12:28:12.107Z,29.13
2017-04-15T12:29:21.501Z,28.94
2017-04-15T12:30:30.592Z,29.32
2017-04-15T12:31:39.679Z,29.13
2017-04-15T12:32:49.054Z,28.94
2017-04-15T12:33:58.681Z,28.84
2017-04-15T12:35:07.936Z,28.94
2017-04-15T12:36:16.707Z,29.13
2017-04-15T12:37:25.759Z,29.22
2017-04-15T12:38:34.772Z,29.22
2017-04-15T12:39:43.810Z,29.21
2017-04-15T12:40:52.896Z,28.94
2017-04-15T12:42:01.650Z,29.31
2017-04-15T12:43:10.362Z,28.83
2017-04-15T12:44:20.312Z,28.63
2017-04-15T12:45:29.390Z,29.02
2017-04-15T12:46:38.783Z,29.31
2017-04-15T12:47:47.846Z,29.11
2017-04-15T12:48:56.885Z,29.5
2017-04-15T12:50:06.132Z,29.5
2017-04-15T12:51:14.881Z,29.69
2017-04-15T12:52:23.934Z,29.79
2017-04-15T12:53:32.669Z,29.89
2017-04-15T12:54:42.057Z,30.08
2017-04-15T12:55:51.417Z,30.46
2017-04-15T12:57:00.159Z,29.98
2017-04-15T12:58:10.291Z,30.37
2017-04-15T12:59:19.077Z,30.37
2017-04-15T13:00:28.623Z,30.45
2017-04-15T13:01:37.703Z,30.66
2017-04-15T13:02:47.142Z,30.46
2017-04-15T13:03:56.197Z,30.74
2017-04-15T13:05:05.709Z,31.04
2017-04-15T13:06:15.136Z,30.93
2017-04-15T13:07:24.216Z,30.94
2017-04-15T13:08:33.467Z,30.55
2017-04-15T13:09:42.235Z,30.16
2017-04-15T13:10:51.296Z,30.26
2017-04-15T13:12:00.641Z,30.55
2017-04-15T13:13:09.724Z,30.45
2017-04-15T13:14:18.800Z,30.45
2017-04-15T13:15:27.887Z,30.74
2017-04-15T13:16:36.902Z,30.55
2017-04-15T13:17:46.252Z,31.32
2017-04-15T13:18:55.668Z,30.83
2017-04-15T13:20:04.744Z,30.45
2017-04-15T13:21:14.428Z,30.83
2017-04-15T13:22:23.503Z,31.03
2017-04-15T13:23:32.286Z,31.03
2017-04-15T13:24:41.685Z,31.32
2017-04-15T13:25:50.741Z,31.41
2017-04-15T13:26:59.825Z,31.22
2017-04-15T13:28:08.919Z,31.6
2017-04-15T13:29:18.011Z,31.22
2017-04-15T13:30:27.705Z,31.32
2017-04-15T13:31:36.787Z,31.7
2017-04-15T13:32:46.169Z,31.24
2017-04-15T13:33:56.188Z,31.62
2017-04-15T13:35:05.573Z,31.91
2017-04-15T13:36:14.965Z,31.72
2017-04-15T13:37:24.044Z,31.52
2017-04-15T13:38:33.122Z,31.6
2017-04-15T13:39:42.214Z,31.41
2017-04-15T13:40:51.289Z,31.51
2017-04-15T13:42:00.347Z,31.52
2017-04-15T13:43:09.073Z,31.51
2017-04-15T13:44:18.776Z,31.51
2017-04-15T13:45:27.854Z,31.51
2017-04-15T13:46:37.555Z,31.6
2017-04-15T13:47:46.912Z,31.33
2017-04-15T13:48:56.258Z,31.72
2017-04-15T13:50:05.659Z,31.43
2017-04-15T13:51:14.426Z,31.72
2017-04-15T13:52:23.209Z,31.8
2017-04-15T13:53:32.458Z,31.81
2017-04-15T13:54:41.195Z,31.8
2017-04-15T13:55:49.967Z,31.9
2017-04-15T13:56:59.349Z,31.8
2017-04-15T13:58:08.132Z,31.9
2017-04-15T13:59:17.819Z,31.72
2017-04-15T14:00:26.642Z,31.8
2017-04-15T14:01:35.417Z,31.72
2017-04-15T14:02:44.499Z,31.52
2017-04-15T14:03:53.892Z,31.62
2017-04-15T14:05:03.490Z,31.72
2017-04-15T14:06:12.259Z,31.52
2017-04-15T14:07:21.637Z,31.81
2017-04-15T14:08:30.715Z,31.81
2017-04-15T14:09:40.108Z,31.91
2017-04-15T14:10:49.193Z,31.72
2017-04-15T14:11:58.272Z,31.33
2017-04-15T14:13:07.358Z,31.14
2017-04-15T14:14:16.204Z,31.54
2017-04-15T14:15:25.515Z,31.14
2017-04-15T14:16:34.592Z,31.43
2017-04-15T14:17:43.348Z,31.24
2017-04-15T14:18:53.299Z,31.33
2017-04-15T14:20:02.634Z,31.35
2017-04-15T14:21:11.370Z,31.25
2017-04-15T14:22:20.353Z,31.04
2017-04-15T14:23:29.444Z,31.33
2017-04-15T14:24:38.225Z,31.24
2017-04-15T14:25:47.311Z,31.43
2017-04-15T14:26:56.081Z,31.14
2017-04-15T14:28:05.773Z,31.52
2017-04-15T14:29:14.849Z,31.72
2017-04-15T14:30:24.530Z,31.52
2017-04-15T14:31:33.504Z,31.72
2017-04-15T14:32:42.279Z,31.91
2017-04-15T14:33:51.362Z,31.91
2017-04-15T14:35:01.360Z,31.91
2017-04-15T14:36:10.437Z,31.72
2017-04-15T14:37:19.212Z,31.91
2017-04-15T14:38:27.974Z,31.52
2017-04-15T14:39:36.751Z,31.52
2017-04-15T14:40:45.526Z,31.52
2017-04-15T14:41:54.294Z,31.81
2017-04-15T14:43:03.368Z,31.62
2017-04-15T14:44:12.726Z,31.22
2017-04-15T14:45:21.779Z,31.04
2017-04-15T14:46:30.785Z,31.24
2017-04-15T14:47:39.816Z,31.32
2017-04-15T14:48:48.868Z,31.32
2017-04-15T14:49:57.918Z,31.22
2017-04-15T14:51:06.999Z,31.62
2017-04-15T14:52:16.056Z,31.51
2017-04-15T14:53:25.100Z,31.43
2017-04-15T14:54:34.481Z,31.33